Kansas City, Missouri
Traffic Map
Current Weather Conditions
Kansas City, Missouri
Scattered Clouds
Scattered Clouds
89°
Feels Like: 92°
Wind Chill: 89° Ceiling: Unl
Heat Index: 92° Visibility: 10mi
Dew Point: 67° Wind: 10mph
Humidity: 48% Direction: 120° (ESE)
Pressure: 30.1in Gusts: 0mph
Raw Report DataKMKC 292054Z 12009KT 10SM FEW055 SCT100 32/19 A3010 RMK AO2 SLP185 T03170194 56024
Traffic Incident Summary
Active as of:
Severity:
Category:
InformationThere was an issue retrieving the traffic information for this location. Please try a different location or try again shortly.
Advertisements
Track Severe Weather on mobile